createdAt,value
2018-10-17T00:02:00.913Z,63.60
2018-10-17T00:04:28.962Z,63.95
2018-10-17T00:06:57.021Z,68.50
2018-10-17T00:09:25.129Z,72.17
2018-10-17T00:11:53.196Z,71.90
2018-10-17T00:14:21.260Z,72.50
2018-10-17T00:16:49.301Z,73.07
2018-10-17T00:19:17.368Z,67.90
2018-10-17T00:21:45.412Z,72.50
2018-10-17T00:24:13.468Z,73.33
2018-10-17T00:26:41.544Z,75.80
2018-10-17T00:29:09.654Z,72.80
2018-10-17T00:31:37.676Z,69.67
2018-10-17T00:34:05.739Z,68.93
2018-10-17T00:36:33.793Z,72.35
2018-10-17T00:39:01.884Z,69.07
2018-10-17T00:41:29.941Z,68.92
2018-10-17T00:43:57.991Z,66.65
2018-10-17T00:46:26.188Z,70.37
2018-10-17T00:48:54.248Z,68.28
2018-10-17T00:51:22.296Z,70.90
2018-10-17T00:53:50.363Z,70.28
2018-10-17T00:56:18.433Z,71.47
2018-10-17T00:59:07.559Z,75.70
2018-10-17T01:01:35.696Z,76.25
2018-10-17T01:04:04.039Z,76.17
2018-10-17T01:06:33.136Z,80.05
2018-10-17T01:09:02.164Z,74.35
2018-10-17T01:11:30.234Z,71.20
2018-10-17T01:13:58.298Z,68.00
2018-10-17T01:16:26.430Z,72.95
2018-10-17T01:18:54.541Z,72.85
2018-10-17T01:21:22.562Z,73.07
2018-10-17T01:23:50.756Z,70.37
2018-10-17T01:26:18.819Z,70.62
2018-10-17T01:28:46.872Z,72.80
2018-10-17T01:31:15.014Z,67.08
2018-10-17T01:33:42.992Z,69.80
2018-10-17T01:36:11.056Z,75.05
2018-10-17T01:38:39.136Z,74.60
2018-10-17T01:41:07.230Z,70.32
2018-10-17T01:43:35.268Z,73.37
2018-10-17T01:46:03.316Z,74.37
2018-10-17T01:48:31.357Z,76.55
2018-10-17T01:50:59.757Z,71.15
2018-10-17T01:53:27.817Z,69.33
2018-10-17T01:55:55.864Z,73.17
2018-10-17T01:58:23.932Z,73.95
2018-10-17T02:00:52.026Z,71.22
2018-10-17T02:03:20.056Z,71.87
2018-10-17T02:05:48.125Z,68.92
2018-10-17T02:08:16.171Z,68.00
2018-10-17T02:10:44.212Z,67.03
2018-10-17T02:13:12.310Z,67.50
2018-10-17T02:15:40.382Z,66.17
2018-10-17T02:18:08.409Z,64.55
2018-10-17T02:20:36.457Z,65.52
2018-10-17T02:23:04.800Z,64.37
2018-10-17T02:25:32.781Z,62.07
2018-10-17T02:28:00.988Z,61.77
2018-10-17T02:30:29.060Z,64.12
2018-10-17T02:32:57.116Z,63.13
2018-10-17T02:35:25.173Z,63.58
2018-10-17T02:37:53.277Z,61.85
2018-10-17T02:40:21.361Z,60.50
2018-10-17T02:42:49.384Z,61.63
2018-10-17T02:45:17.467Z,61.08
2018-10-17T02:47:45.519Z,62.65
2018-10-17T02:50:13.582Z,63.93
2018-10-17T02:52:42.431Z,61.28
2018-10-17T02:55:10.708Z,60.03
2018-10-17T02:57:38.989Z,60.48
2018-10-17T03:00:08.244Z,59.65
2018-10-17T03:02:36.297Z,60.28
2018-10-17T03:05:06.817Z,61.10
2018-10-17T03:07:34.882Z,58.77
2018-10-17T03:10:02.927Z,58.40
2018-10-17T03:12:30.989Z,59.65
2018-10-17T03:14:59.039Z,57.43
2018-10-17T03:17:27.101Z,58.40
2018-10-17T03:19:55.161Z,58.83
2018-10-17T03:22:23.233Z,57.45
2018-10-17T03:24:51.347Z,57.30
2018-10-17T03:27:19.344Z,58.87
2018-10-17T03:29:47.429Z,58.33
2018-10-17T03:32:15.489Z,57.53
2018-10-17T03:34:43.557Z,60.23
2018-10-17T03:37:11.689Z,59.70
2018-10-17T03:39:39.677Z,59.30
2018-10-17T03:42:07.738Z,58.60
2018-10-17T03:44:35.784Z,58.02
2018-10-17T03:47:03.873Z,54.77
2018-10-17T03:49:31.957Z,56.15
2018-10-17T03:51:59.976Z,56.50
2018-10-17T03:54:28.047Z,56.58
2018-10-17T03:56:56.153Z,57.20
2018-10-17T03:59:24.291Z,55.25
2018-10-17T04:01:52.257Z,55.15
2018-10-17T04:07:02.816Z,56.08
2018-10-17T04:09:30.817Z,53.13
2018-10-17T04:11:58.886Z,53.68
2018-10-17T04:14:26.937Z,52.60
2018-10-17T04:16:55.072Z,53.35
2018-10-17T04:19:23.058Z,52.80
2018-10-17T04:21:51.140Z,51.20
2018-10-17T04:24:19.216Z,52.98
2018-10-17T04:26:48.076Z,54.23
2018-10-17T04:29:16.205Z,54.25
2018-10-17T04:31:44.238Z,54.17
2018-10-17T04:34:12.313Z,53.83
2018-10-17T04:36:40.385Z,55.12
2018-10-17T04:39:09.664Z,53.55
2018-10-17T04:41:37.736Z,52.65
2018-10-17T04:44:06.012Z,53.48
2018-10-17T04:46:34.096Z,53.02
2018-10-17T04:49:02.219Z,49.90
2018-10-17T04:51:30.319Z,52.60
2018-10-17T04:53:58.362Z,50.85
2018-10-17T04:56:26.434Z,49.63
2018-10-17T04:58:54.549Z,48.85
2018-10-17T05:01:22.598Z,50.50
2018-10-17T05:03:50.656Z,50.70
2018-10-17T05:06:18.733Z,49.70
2018-10-17T05:08:46.803Z,48.93
2018-10-17T05:11:15.042Z,48.02
2018-10-17T05:13:43.082Z,48.25
2018-10-17T05:16:11.161Z,49.00
2018-10-17T05:18:39.279Z,48.28
2018-10-17T05:21:07.360Z,49.33
2018-10-17T05:23:35.449Z,48.17
2018-10-17T05:26:03.510Z,46.33
2018-10-17T05:28:31.621Z,46.77
2018-10-17T05:30:59.720Z,45.28
2018-10-17T05:33:27.729Z,48.70
2018-10-17T05:35:55.861Z,46.45
2018-10-17T05:38:23.932Z,46.50
2018-10-17T05:40:52.407Z,45.63
2018-10-17T05:43:21.270Z,45.80
2018-10-17T05:45:49.408Z,46.50
2018-10-17T05:48:17.467Z,46.92
2018-10-17T05:50:45.766Z,47.75
2018-10-17T05:53:14.026Z,48.35
2018-10-17T05:55:42.190Z,48.65
2018-10-17T05:58:10.394Z,77.27
2018-10-17T06:00:38.463Z,56.37
2018-10-17T06:03:06.723Z,77.08
2018-10-17T06:05:34.784Z,54.95
2018-10-17T06:08:03.231Z,55.10
2018-10-17T06:10:31.302Z,49.70
2018-10-17T06:12:59.383Z,49.93
2018-10-17T06:15:27.461Z,53.00
2018-10-17T06:17:55.521Z,47.10
2018-10-17T06:20:23.601Z,47.90
2018-10-17T06:22:51.711Z,46.60
2018-10-17T06:25:19.817Z,49.93
2018-10-17T06:27:47.890Z,50.15
2018-10-17T06:30:15.999Z,52.05
2018-10-17T06:32:44.053Z,49.63
2018-10-17T06:35:12.227Z,49.40
2018-10-17T06:37:40.179Z,48.50
2018-10-17T06:40:08.926Z,46.45
2018-10-17T06:42:37.596Z,46.10
2018-10-17T06:45:05.969Z,46.10
2018-10-17T06:47:34.689Z,43.92
2018-10-17T06:50:02.796Z,44.30
2018-10-17T06:52:30.860Z,43.50
2018-10-17T06:54:59.015Z,46.02
2018-10-17T06:57:27.037Z,42.65
2018-10-17T06:59:55.109Z,42.27
2018-10-17T07:02:23.330Z,41.25
2018-10-17T07:04:51.353Z,42.60
2018-10-17T07:07:19.476Z,42.62
2018-10-17T07:09:48.157Z,42.00
2018-10-17T07:12:16.213Z,43.07
2018-10-17T07:14:44.284Z,42.10
2018-10-17T07:17:12.852Z,43.05
2018-10-17T07:19:41.581Z,40.63
2018-10-17T07:22:09.636Z,41.03
2018-10-17T07:24:37.704Z,40.48
2018-10-17T07:27:05.752Z,39.88
2018-10-17T07:29:33.954Z,39.67
2018-10-17T07:32:02.043Z,38.48
2018-10-17T07:34:30.096Z,38.30
2018-10-17T07:36:58.201Z,38.73
2018-10-17T07:39:26.395Z,38.13
2018-10-17T07:41:54.692Z,37.13
2018-10-17T07:44:22.732Z,39.65
2018-10-17T07:46:50.825Z,35.58
2018-10-17T07:49:18.884Z,36.48
2018-10-17T07:51:47.017Z,36.63
2018-10-17T07:54:15.153Z,36.73
2018-10-17T07:56:43.157Z,33.63
2018-10-17T07:59:11.221Z,33.65
2018-10-17T08:01:39.308Z,34.83
2018-10-17T08:04:07.385Z,32.05
2018-10-17T08:06:35.513Z,32.97
2018-10-17T08:09:07.685Z,33.88
2018-10-17T08:11:35.965Z,35.10
2018-10-17T08:14:04.027Z,34.10
2018-10-17T08:16:32.076Z,34.50
2018-10-17T08:19:00.154Z,34.05
2018-10-17T08:21:28.379Z,29.35
2018-10-17T08:23:56.412Z,28.32
2018-10-17T08:26:24.622Z,27.65
2018-10-17T08:28:52.747Z,27.60
2018-10-17T08:31:20.873Z,25.95
2018-10-17T08:33:48.953Z,28.02
2018-10-17T08:36:17.224Z,32.03
2018-10-17T08:38:45.106Z,31.07
2018-10-17T08:41:13.261Z,29.40
2018-10-17T08:43:41.594Z,29.00
2018-10-17T08:46:10.744Z,30.17
2018-10-17T08:48:51.336Z,31.73
2018-10-17T08:51:26.172Z,31.50
2018-10-17T08:54:00.889Z,30.00
2018-10-17T08:56:34.921Z,32.83
2018-10-17T09:01:55.921Z,33.58
2018-10-17T09:07:06.651Z,31.80
2018-10-17T09:09:35.076Z,31.20
2018-10-17T09:12:03.475Z,32.15
2018-10-17T09:14:31.530Z,31.70
2018-10-17T09:16:59.602Z,30.10
2018-10-17T09:19:27.788Z,31.70
2018-10-17T09:21:56.225Z,29.98
2018-10-17T09:24:23.864Z,29.52
2018-10-17T09:26:51.945Z,30.55
2018-10-17T09:29:20.019Z,29.87
2018-10-17T09:31:48.103Z,29.72
2018-10-17T09:34:16.161Z,27.55
2018-10-17T09:36:44.215Z,27.48
2018-10-17T09:39:12.634Z,32.67
2018-10-17T09:41:41.437Z,27.85
2018-10-17T09:44:09.481Z,25.67
2018-10-17T09:46:37.619Z,26.37
2018-10-17T09:49:05.814Z,25.68
2018-10-17T09:51:34.246Z,26.40
2018-10-17T09:54:02.354Z,28.00
2018-10-17T09:56:30.371Z,28.05
2018-10-17T09:58:58.429Z,27.20
2018-10-17T10:01:31.980Z,26.70
2018-10-17T10:04:00.028Z,27.30
2018-10-17T10:06:28.066Z,29.50
2018-10-17T10:08:56.129Z,40.45
2018-10-17T10:11:24.196Z,24.80
2018-10-17T10:13:52.251Z,25.25
2018-10-17T10:16:20.368Z,27.40
2018-10-17T10:18:48.357Z,27.37
2018-10-17T10:21:16.404Z,24.50
2018-10-17T10:23:44.549Z,24.45
2018-10-17T10:26:12.497Z,24.30
2018-10-17T10:28:40.600Z,22.73
2018-10-17T10:31:08.624Z,23.95
2018-10-17T10:33:36.706Z,22.95
2018-10-17T10:36:04.918Z,21.75
2018-10-17T10:38:32.901Z,21.13
2018-10-17T10:41:00.955Z,20.90
2018-10-17T10:43:28.997Z,19.32
2018-10-17T10:45:57.025Z,19.07
2018-10-17T10:48:25.073Z,22.60
2018-10-17T10:50:53.132Z,22.37
2018-10-17T10:53:21.181Z,22.37
2018-10-17T10:55:49.249Z,20.20
2018-10-17T10:58:17.357Z,21.27
2018-10-17T11:00:45.364Z,21.45
2018-10-17T11:03:13.462Z,19.52
2018-10-17T11:05:41.722Z,19.85
2018-10-17T11:08:09.613Z,21.40
2018-10-17T11:10:37.580Z,21.25
2018-10-17T11:13:06.174Z,23.17
2018-10-17T11:15:34.274Z,22.00
2018-10-17T11:18:02.370Z,20.88
2018-10-17T11:20:30.474Z,20.43
2018-10-17T11:22:58.605Z,22.07
2018-10-17T11:25:26.591Z,20.40
2018-10-17T11:27:54.660Z,19.87
2018-10-17T11:30:22.780Z,20.40
2018-10-17T11:32:50.818Z,20.95
2018-10-17T11:35:18.955Z,20.50
2018-10-17T11:37:46.972Z,37.48
2018-10-17T11:40:15.043Z,21.12
2018-10-17T11:42:43.231Z,20.88
2018-10-17T11:45:11.376Z,19.77
2018-10-17T11:47:39.465Z,21.05
2018-10-17T11:50:08.952Z,19.12
2018-10-17T11:52:37.191Z,19.27
2018-10-17T11:55:05.370Z,18.32
2018-10-17T11:57:33.492Z,18.10
2018-10-17T12:00:01.620Z,25.68
2018-10-17T12:02:29.667Z,22.17
2018-10-17T12:04:58.066Z,18.52
2018-10-17T12:07:28.115Z,15.95
2018-10-17T12:09:56.203Z,17.98
2018-10-17T12:12:24.329Z,17.00
2018-10-17T12:14:52.390Z,16.20
2018-10-17T12:17:20.375Z,16.77
2018-10-17T12:19:48.448Z,15.20
2018-10-17T12:22:16.462Z,17.23
2018-10-17T12:24:45.444Z,15.98
2018-10-17T12:27:13.554Z,15.00
2018-10-17T12:29:41.525Z,15.50
2018-10-17T12:32:09.648Z,18.20
2018-10-17T12:34:38.019Z,16.05
2018-10-17T12:37:06.072Z,15.03
2018-10-17T12:39:34.188Z,13.70
2018-10-17T12:42:02.200Z,17.17
2018-10-17T12:44:30.272Z,17.02
2018-10-17T12:46:58.329Z,14.78
2018-10-17T12:49:26.387Z,14.40
2018-10-17T12:51:54.466Z,15.30
2018-10-17T12:54:22.584Z,14.83
2018-10-17T12:56:50.829Z,13.65
2018-10-17T12:59:18.988Z,14.70
2018-10-17T13:01:46.989Z,15.72
2018-10-17T13:04:15.497Z,14.40
2018-10-17T13:06:43.550Z,14.63
2018-10-17T13:09:12.382Z,15.88
2018-10-17T13:11:40.734Z,13.97
2018-10-17T13:14:09.184Z,13.70
2018-10-17T13:16:37.286Z,14.95
2018-10-17T13:19:05.419Z,15.60
2018-10-17T13:21:33.422Z,17.20
2018-10-17T13:24:02.075Z,20.12
2018-10-17T13:26:30.113Z,15.00
2018-10-17T13:28:58.205Z,15.32
2018-10-17T13:31:26.253Z,15.88
2018-10-17T13:33:54.345Z,16.48
2018-10-17T13:36:22.399Z,17.30
2018-10-17T13:38:50.433Z,16.77
2018-10-17T13:41:18.572Z,15.20
2018-10-17T13:43:46.523Z,15.23
2018-10-17T13:46:14.577Z,17.57
2018-10-17T13:48:42.613Z,17.10
2018-10-17T13:51:11.045Z,16.07
2018-10-17T13:53:39.094Z,15.45
2018-10-17T13:56:07.142Z,16.15
2018-10-17T13:58:35.172Z,16.97
2018-10-17T14:01:03.260Z,18.52
2018-10-17T14:03:31.284Z,15.63
2018-10-17T14:05:59.408Z,16.73
2018-10-17T14:08:27.413Z,18.02
2018-10-17T14:10:55.692Z,17.27
2018-10-17T14:13:23.797Z,15.45
2018-10-17T14:15:51.773Z,14.00
2018-10-17T14:18:19.822Z,17.85
2018-10-17T14:20:47.860Z,19.75
2018-10-17T14:23:15.985Z,13.80
2018-10-17T14:25:43.966Z,13.70
2018-10-17T14:28:12.033Z,14.13
2018-10-17T14:30:40.065Z,14.07
2018-10-17T14:33:08.388Z,14.50
2018-10-17T14:35:36.376Z,14.93
2018-10-17T14:38:04.784Z,13.90
2018-10-17T14:40:32.823Z,14.33
2018-10-17T14:43:00.973Z,15.40
2018-10-17T14:45:29.017Z,16.40
2018-10-17T14:47:57.118Z,15.05
2018-10-17T14:50:25.128Z,15.43
2018-10-17T14:52:53.301Z,14.75
2018-10-17T14:55:21.317Z,18.00
2018-10-17T14:57:49.337Z,18.05
2018-10-17T15:00:17.377Z,17.10
2018-10-17T15:02:45.434Z,16.20
2018-10-17T15:05:13.575Z,15.68
2018-10-17T15:07:42.549Z,15.93
2018-10-17T15:10:10.631Z,16.82
2018-10-17T15:12:38.902Z,17.92
2018-10-17T15:15:08.570Z,20.47
2018-10-17T15:17:36.617Z,18.42
2018-10-17T15:20:04.985Z,19.15
2018-10-17T15:22:33.025Z,18.20
2018-10-17T15:25:01.145Z,19.35
2018-10-17T15:27:29.217Z,21.73
2018-10-17T15:29:57.290Z,17.92
2018-10-17T15:32:25.495Z,17.30
2018-10-17T15:34:53.549Z,19.37
2018-10-17T15:37:21.600Z,19.63
2018-10-17T15:39:49.655Z,19.40
2018-10-17T15:42:17.755Z,22.00
2018-10-17T15:44:45.783Z,24.73
2018-10-17T15:47:14.137Z,19.60
2018-10-17T15:49:42.290Z,21.40
2018-10-17T15:52:10.594Z,23.32
2018-10-17T15:54:38.662Z,23.30
2018-10-17T15:57:06.901Z,23.20
2018-10-17T15:59:34.949Z,22.60
2018-10-17T16:02:04.323Z,19.33
2018-10-17T16:04:32.350Z,20.90
2018-10-17T16:07:00.405Z,21.35
2018-10-17T16:09:28.472Z,21.12
2018-10-17T16:11:56.561Z,22.80
2018-10-17T16:14:24.636Z,22.77
2018-10-17T16:16:52.716Z,21.27
2018-10-17T16:19:20.785Z,26.80
2018-10-17T16:21:48.839Z,22.90
2018-10-17T16:24:16.978Z,22.37
2018-10-17T16:26:44.921Z,24.57
2018-10-17T16:29:12.978Z,29.60
2018-10-17T16:31:41.029Z,25.17
2018-10-17T16:34:09.102Z,30.27
2018-10-17T16:36:38.820Z,26.05
2018-10-17T16:39:08.677Z,26.85
2018-10-17T16:41:36.824Z,26.33
2018-10-17T16:44:05.132Z,28.17
2018-10-17T16:46:33.156Z,27.90
2018-10-17T16:49:01.193Z,26.60
2018-10-17T16:51:29.249Z,27.87
2018-10-17T16:53:57.333Z,29.52
2018-10-17T16:56:25.403Z,28.83
2018-10-17T16:58:53.489Z,26.00
2018-10-17T17:01:21.550Z,28.85
2018-10-17T17:03:49.642Z,30.30
2018-10-17T17:06:17.776Z,31.42
2018-10-17T17:08:45.768Z,33.73
2018-10-17T17:11:13.881Z,34.30
2018-10-17T17:13:41.994Z,39.27
2018-10-17T17:16:10.114Z,46.65
2018-10-17T17:18:38.149Z,49.90
2018-10-17T17:21:06.270Z,48.80
2018-10-17T17:23:34.361Z,50.08
2018-10-17T17:26:02.456Z,51.90
2018-10-17T17:28:30.545Z,53.30
2018-10-17T17:33:33.289Z,57.27
2018-10-17T17:36:01.430Z,55.40
2018-10-17T17:38:29.481Z,55.92
2018-10-17T17:40:57.564Z,54.18
2018-10-17T17:43:25.664Z,55.58
2018-10-17T17:45:53.746Z,59.50
2018-10-17T17:48:21.814Z,60.57
2018-10-17T17:50:49.870Z,61.45
2018-10-17T17:53:17.941Z,64.03
2018-10-17T17:55:46.022Z,64.62
2018-10-17T17:58:14.145Z,65.37
2018-10-17T18:00:42.157Z,66.33
2018-10-17T18:03:10.337Z,68.92
2018-10-17T18:05:38.408Z,67.47
2018-10-17T18:08:06.478Z,71.37
2018-10-17T18:10:34.545Z,72.47
2018-10-17T18:13:02.641Z,70.28
2018-10-17T18:15:30.707Z,72.40
2018-10-17T18:17:58.829Z,73.55
2018-10-17T18:20:26.926Z,75.20
2018-10-17T18:22:55.100Z,74.87
2018-10-17T18:25:23.172Z,75.70
2018-10-17T18:27:51.813Z,77.12
2018-10-17T18:30:19.832Z,78.07
2018-10-17T18:32:47.925Z,76.12
2018-10-17T18:35:16.527Z,77.58
2018-10-17T18:37:44.690Z,76.72
2018-10-17T18:40:13.147Z,80.03
2018-10-17T18:42:41.337Z,78.78
2018-10-17T18:45:09.480Z,77.07
2018-10-17T18:47:37.536Z,79.35
2018-10-17T18:50:06.353Z,82.90
2018-10-17T18:52:35.124Z,84.83
2018-10-17T18:55:03.208Z,83.90
2018-10-17T18:57:31.281Z,83.78
2018-10-17T18:59:59.424Z,84.93
2018-10-17T19:02:27.522Z,88.47
2018-10-17T19:04:55.605Z,86.55
2018-10-17T19:07:23.965Z,88.45
2018-10-17T19:09:52.020Z,88.67
2018-10-17T19:12:20.304Z,92.17
2018-10-17T19:14:48.399Z,89.57
2018-10-17T19:17:16.537Z,89.50
2018-10-17T19:19:44.768Z,92.67
2018-10-17T19:22:12.984Z,92.27
2018-10-17T19:24:41.687Z,93.20
2018-10-17T19:27:09.769Z,95.70
2018-10-17T19:29:38.326Z,94.85
2018-10-17T19:32:06.418Z,93.72
2018-10-17T19:34:35.264Z,96.35
2018-10-17T19:37:03.413Z,90.87
2018-10-17T19:39:31.488Z,95.40
2018-10-17T19:41:59.612Z,94.67
2018-10-17T19:44:27.638Z,99.87
2018-10-17T19:46:55.746Z,95.72
2018-10-17T19:49:24.139Z,96.27
2018-10-17T19:51:52.368Z,98.67
2018-10-17T19:54:20.545Z,95.90
2018-10-17T19:56:48.627Z,100.07
2018-10-17T19:59:16.759Z,98.92
2018-10-17T20:01:44.858Z,101.80
2018-10-17T20:04:13.001Z,100.58
2018-10-17T20:06:41.080Z,103.15
2018-10-17T20:09:10.246Z,101.53
2018-10-17T20:11:38.344Z,101.42
2018-10-17T20:14:06.897Z,107.00
2018-10-17T20:16:34.977Z,103.17
2018-10-17T20:19:03.135Z,105.43
2018-10-17T20:21:31.199Z,113.23
2018-10-17T20:23:59.254Z,111.05
2018-10-17T20:26:27.320Z,109.50
2018-10-17T20:28:56.126Z,107.37
2018-10-17T20:31:24.205Z,113.25
2018-10-17T20:33:52.441Z,115.52
2018-10-17T20:36:20.829Z,113.05
2018-10-17T20:38:48.986Z,119.82
2018-10-17T20:41:17.149Z,128.93
2018-10-17T20:43:45.383Z,131.55
2018-10-17T20:46:13.615Z,134.90
2018-10-17T20:48:41.706Z,136.22
2018-10-17T20:51:09.862Z,141.63
2018-10-17T20:53:38.058Z,147.85
2018-10-17T20:56:06.422Z,151.53
2018-10-17T20:58:34.566Z,152.85
2018-10-17T21:01:02.671Z,165.90
2018-10-17T21:03:30.960Z,161.32
2018-10-17T21:05:59.108Z,166.47
2018-10-17T21:08:27.258Z,170.17
2018-10-17T21:10:55.493Z,176.10
2018-10-17T21:13:23.619Z,170.85
2018-10-17T21:15:51.706Z,181.67
2018-10-17T21:18:19.885Z,181.65
2018-10-17T21:20:48.025Z,189.47
2018-10-17T21:23:16.189Z,180.90
2018-10-17T21:25:44.445Z,180.72
2018-10-17T21:28:12.851Z,181.30
2018-10-17T21:30:40.971Z,179.72
2018-10-17T21:33:09.070Z,184.07
2018-10-17T21:35:37.185Z,182.20
2018-10-17T21:38:05.416Z,190.95
2018-10-17T21:40:33.494Z,183.32
2018-10-17T21:43:01.572Z,195.70
2018-10-17T21:45:29.661Z,199.02
2018-10-17T21:47:57.776Z,187.15
2018-10-17T21:50:25.852Z,201.02
2018-10-17T21:52:53.913Z,196.72
2018-10-17T21:55:21.968Z,205.90
2018-10-17T21:57:50.049Z,196.65
2018-10-17T22:00:18.145Z,191.68
2018-10-17T22:02:46.224Z,195.75
2018-10-17T22:05:14.306Z,178.18
2018-10-17T22:07:42.390Z,171.25
2018-10-17T22:10:10.520Z,163.77
2018-10-17T22:12:38.644Z,166.57
2018-10-17T22:15:07.276Z,175.93
2018-10-17T22:17:35.369Z,177.35
2018-10-17T22:20:03.502Z,172.10
2018-10-17T22:22:31.519Z,167.43
2018-10-17T22:24:59.596Z,168.37
2018-10-17T22:27:27.699Z,174.93
2018-10-17T22:29:55.861Z,170.07
2018-10-17T22:32:23.889Z,165.80
2018-10-17T22:34:52.328Z,170.37
2018-10-17T22:37:20.412Z,170.28
2018-10-17T22:39:48.497Z,165.10
2018-10-17T22:42:16.540Z,153.00
2018-10-17T22:44:44.622Z,158.07
2018-10-17T22:47:12.696Z,145.17
2018-10-17T22:49:41.384Z,153.05
2018-10-17T22:52:09.493Z,125.33
2018-10-17T22:54:37.544Z,135.37
2018-10-17T22:57:05.620Z,132.43
2018-10-17T22:59:33.672Z,137.77
2018-10-17T23:02:01.776Z,135.48
2018-10-17T23:04:29.877Z,139.72
2018-10-17T23:06:57.965Z,139.97
2018-10-17T23:09:26.026Z,132.22
2018-10-17T23:11:54.134Z,135.78
2018-10-17T23:14:22.217Z,129.13
2018-10-17T23:16:50.272Z,143.13
2018-10-17T23:19:18.360Z,130.25
2018-10-17T23:21:46.416Z,127.50
2018-10-17T23:24:14.493Z,120.10
2018-10-17T23:26:42.545Z,134.97
2018-10-17T23:29:10.644Z,133.07
2018-10-17T23:31:38.710Z,126.83
2018-10-17T23:34:06.777Z,118.60
2018-10-17T23:36:34.848Z,126.78
2018-10-17T23:39:03.009Z,123.70
2018-10-17T23:41:31.109Z,122.02
2018-10-17T23:43:59.226Z,125.30
2018-10-17T23:46:27.294Z,120.77
2018-10-17T23:48:55.352Z,119.37
2018-10-17T23:51:23.481Z,118.93
2018-10-17T23:53:51.549Z,109.80
2018-10-17T23:56:19.606Z,118.80
2018-10-17T23:58:47.693Z,122.28
